Terminal Aerodrome Forecast
Issued by NWS Wilmington, NC

Home | Current Version | Previous Version | Text Only | Print | Product List | Glossary On
Versions: 1 2 3 4 5 6 7 8 9 10 11 12 13 14 15 16 17 18
000
FTUS42 KILM 011100
TAFFLO
TAF
KFLO 011135Z 0112/0212 VRB02KT P6SM SCT005 SCT120
     FM011400 26004KT P6SM SCT020
     FM012000 19008KT P6SM VCSH BKN035
     FM020000 20005KT P6SM FEW050
      TEMPO 0208/0212 4SM BR SCT010=

USA.gov is the U.S. government's official web portal to all federal, state and local government web resources and services.